sensor_id;sensor_type;location;lat;lon;timestamp;P1;durP1;ratioP1;P2;durP2;ratioP2
12603;SDS011;6367;52.508;13.284;2023-05-10T00:02:06;5.40;;;5.00;;
12603;SDS011;6367;52.508;13.284;2023-05-10T00:04:32;6.67;;;5.30;;
12603;SDS011;6367;52.508;13.284;2023-05-10T00:06:57;6.37;;;4.67;;
12603;SDS011;6367;52.508;13.284;2023-05-10T00:09:23;6.23;;;5.50;;
12603;SDS011;6367;52.508;13.284;2023-05-10T00:11:49;7.63;;;4.90;;
12603;SDS011;6367;52.508;13.284;2023-05-10T00:14:14;5.90;;;5.40;;
12603;SDS011;6367;52.508;13.284;2023-05-10T00:16:40;5.47;;;4.97;;
12603;SDS011;6367;52.508;13.284;2023-05-10T00:19:06;5.53;;;5.03;;
12603;SDS011;6367;52.508;13.284;2023-05-10T00:21:31;5.57;;;4.93;;
12603;SDS011;6367;52.508;13.284;2023-05-10T00:23:58;6.43;;;5.40;;
12603;SDS011;6367;52.508;13.284;2023-05-10T00:26:25;6.20;;;5.63;;
12603;SDS011;6367;52.508;13.284;2023-05-10T00:28:50;5.40;;;4.80;;
12603;SDS011;6367;52.508;13.284;2023-05-10T00:31:16;5.83;;;5.30;;
12603;SDS011;6367;52.508;13.284;2023-05-10T00:33:41;6.50;;;5.13;;
12603;SDS011;6367;52.508;13.284;2023-05-10T00:36:07;7.07;;;5.10;;
12603;SDS011;6367;52.508;13.284;2023-05-10T00:38:33;5.67;;;5.00;;
12603;SDS011;6367;52.508;13.284;2023-05-10T00:40:59;8.27;;;5.43;;
12603;SDS011;6367;52.508;13.284;2023-05-10T00:43:24;6.40;;;5.90;;
12603;SDS011;6367;52.508;13.284;2023-05-10T00:45:50;5.60;;;5.03;;
12603;SDS011;6367;52.508;13.284;2023-05-10T00:48:15;5.70;;;5.20;;
12603;SDS011;6367;52.508;13.284;2023-05-10T00:50:41;6.10;;;5.57;;
12603;SDS011;6367;52.508;13.284;2023-05-10T00:53:07;5.93;;;5.33;;
12603;SDS011;6367;52.508;13.284;2023-05-10T00:55:33;6.47;;;5.87;;
12603;SDS011;6367;52.508;13.284;2023-05-10T00:57:59;6.50;;;4.90;;
12603;SDS011;6367;52.508;13.284;2023-05-10T01:00:26;7.03;;;6.33;;
12603;SDS011;6367;52.508;13.284;2023-05-10T01:02:53;5.80;;;5.20;;
12603;SDS011;6367;52.508;13.284;2023-05-10T01:05:18;6.27;;;5.73;;
12603;SDS011;6367;52.508;13.284;2023-05-10T01:07:44;5.70;;;5.03;;
12603;SDS011;6367;52.508;13.284;2023-05-10T01:10:10;6.87;;;5.87;;
12603;SDS011;6367;52.508;13.284;2023-05-10T01:12:37;7.67;;;5.77;;
12603;SDS011;6367;52.508;13.284;2023-05-10T01:15:06;6.20;;;5.63;;
12603;SDS011;6367;52.508;13.284;2023-05-10T01:17:34;6.60;;;5.90;;
12603;SDS011;6367;52.508;13.284;2023-05-10T01:20:02;8.37;;;6.57;;
12603;SDS011;6367;52.508;13.284;2023-05-10T01:33:52;7.37;;;6.70;;
12603;SDS011;6367;52.508;13.284;2023-05-10T01:36:27;6.67;;;5.70;;
12603;SDS011;6367;52.508;13.284;2023-05-10T01:39:09;5.80;;;5.30;;
12603;SDS011;6367;52.508;13.284;2023-05-10T01:41:48;7.63;;;6.87;;
12603;SDS011;6367;52.508;13.284;2023-05-10T01:44:21;6.60;;;6.00;;
12603;SDS011;6367;52.508;13.284;2023-05-10T01:47:06;8.67;;;6.10;;
12603;SDS011;6367;52.508;13.284;2023-05-10T01:49:43;7.60;;;6.80;;
12603;SDS011;6367;52.508;13.284;2023-05-10T01:52:12;9.07;;;6.30;;
12603;SDS011;6367;52.508;13.284;2023-05-10T01:54:43;7.17;;;6.47;;
12603;SDS011;6367;52.508;13.284;2023-05-10T01:57:15;7.40;;;6.77;;
12603;SDS011;6367;52.508;13.284;2023-05-10T01:59:44;6.63;;;6.13;;
12603;SDS011;6367;52.508;13.284;2023-05-10T02:02:14;7.17;;;6.00;;
12603;SDS011;6367;52.508;13.284;2023-05-10T02:04:42;6.53;;;5.77;;
12603;SDS011;6367;52.508;13.284;2023-05-10T02:07:10;6.10;;;5.50;;
12603;SDS011;6367;52.508;13.284;2023-05-10T02:09:37;6.03;;;5.53;;
12603;SDS011;6367;52.508;13.284;2023-05-10T02:12:03;5.57;;;5.10;;
12603;SDS011;6367;52.508;13.284;2023-05-10T02:14:32;8.43;;;6.43;;
12603;SDS011;6367;52.508;13.284;2023-05-10T02:17:03;8.07;;;5.67;;
12603;SDS011;6367;52.508;13.284;2023-05-10T02:19:30;7.00;;;6.40;;
12603;SDS011;6367;52.508;13.284;2023-05-10T02:21:59;6.33;;;5.47;;
12603;SDS011;6367;52.508;13.284;2023-05-10T02:24:25;7.53;;;6.90;;
12603;SDS011;6367;52.508;13.284;2023-05-10T02:26:53;6.50;;;5.87;;
12603;SDS011;6367;52.508;13.284;2023-05-10T02:29:20;6.30;;;5.70;;
12603;SDS011;6367;52.508;13.284;2023-05-10T02:31:49;6.60;;;5.90;;
12603;SDS011;6367;52.508;13.284;2023-05-10T02:34:18;6.77;;;5.67;;
12603;SDS011;6367;52.508;13.284;2023-05-10T02:36:44;6.97;;;6.27;;
12603;SDS011;6367;52.508;13.284;2023-05-10T02:39:10;6.90;;;6.10;;
12603;SDS011;6367;52.508;13.284;2023-05-10T02:41:38;5.73;;;5.20;;
12603;SDS011;6367;52.508;13.284;2023-05-10T02:44:06;6.40;;;5.80;;
12603;SDS011;6367;52.508;13.284;2023-05-10T02:46:34;8.60;;;7.10;;
12603;SDS011;6367;52.508;13.284;2023-05-10T02:49:00;6.67;;;6.07;;
12603;SDS011;6367;52.508;13.284;2023-05-10T02:51:28;6.57;;;6.03;;
12603;SDS011;6367;52.508;13.284;2023-05-10T02:53:56;7.20;;;6.27;;
12603;SDS011;6367;52.508;13.284;2023-05-10T02:56:30;8.00;;;6.20;;
12603;SDS011;6367;52.508;13.284;2023-05-10T02:58:58;6.43;;;5.87;;
12603;SDS011;6367;52.508;13.284;2023-05-10T03:01:23;6.90;;;6.20;;
12603;SDS011;6367;52.508;13.284;2023-05-10T03:03:49;8.60;;;6.13;;
12603;SDS011;6367;52.508;13.284;2023-05-10T03:06:15;11.03;;;6.57;;
12603;SDS011;6367;52.508;13.284;2023-05-10T03:08:41;7.43;;;5.87;;
12603;SDS011;6367;52.508;13.284;2023-05-10T03:14:53;6.50;;;5.83;;
12603;SDS011;6367;52.508;13.284;2023-05-10T03:20:03;5.67;;;5.17;;
12603;SDS011;6367;52.508;13.284;2023-05-10T03:22:23;6.83;;;6.20;;
12603;SDS011;6367;52.508;13.284;2023-05-10T03:24:53;5.47;;;4.97;;
12603;SDS011;6367;52.508;13.284;2023-05-10T03:27:22;5.87;;;5.37;;
12603;SDS011;6367;52.508;13.284;2023-05-10T03:29:50;5.40;;;4.90;;
12603;SDS011;6367;52.508;13.284;2023-05-10T03:32:17;7.13;;;5.30;;
12603;SDS011;6367;52.508;13.284;2023-05-10T03:34:43;6.00;;;5.50;;
12603;SDS011;6367;52.508;13.284;2023-05-10T03:37:09;5.53;;;4.93;;
12603;SDS011;6367;52.508;13.284;2023-05-10T03:39:35;7.40;;;5.67;;
12603;SDS011;6367;52.508;13.284;2023-05-10T03:42:00;5.57;;;5.07;;
12603;SDS011;6367;52.508;13.284;2023-05-10T03:44:26;7.23;;;4.93;;
12603;SDS011;6367;52.508;13.284;2023-05-10T03:46:51;6.73;;;5.73;;
12603;SDS011;6367;52.508;13.284;2023-05-10T03:49:17;7.63;;;5.00;;
12603;SDS011;6367;52.508;13.284;2023-05-10T03:51:43;6.27;;;5.67;;
12603;SDS011;6367;52.508;13.284;2023-05-10T03:54:08;6.20;;;5.23;;
12603;SDS011;6367;52.508;13.284;2023-05-10T03:56:34;7.03;;;5.00;;
12603;SDS011;6367;52.508;13.284;2023-05-10T03:59:00;6.13;;;5.00;;
12603;SDS011;6367;52.508;13.284;2023-05-10T04:01:25;7.20;;;6.20;;
12603;SDS011;6367;52.508;13.284;2023-05-10T04:03:51;6.27;;;5.33;;
12603;SDS011;6367;52.508;13.284;2023-05-10T04:06:17;5.73;;;5.10;;
12603;SDS011;6367;52.508;13.284;2023-05-10T04:08:42;6.40;;;5.37;;
12603;SDS011;6367;52.508;13.284;2023-05-10T04:11:09;8.40;;;4.80;;
12603;SDS011;6367;52.508;13.284;2023-05-10T04:13:35;7.23;;;5.47;;
12603;SDS011;6367;52.508;13.284;2023-05-10T04:16:01;6.63;;;5.37;;
12603;SDS011;6367;52.508;13.284;2023-05-10T04:18:27;5.40;;;4.77;;
12603;SDS011;6367;52.508;13.284;2023-05-10T04:20:53;6.90;;;5.23;;
12603;SDS011;6367;52.508;13.284;2023-05-10T04:23:19;7.60;;;5.67;;
12603;SDS011;6367;52.508;13.284;2023-05-10T04:25:44;5.53;;;5.00;;
12603;SDS011;6367;52.508;13.284;2023-05-10T04:28:10;5.47;;;4.97;;
12603;SDS011;6367;52.508;13.284;2023-05-10T04:30:35;5.47;;;4.97;;
12603;SDS011;6367;52.508;13.284;2023-05-10T04:33:01;4.83;;;4.43;;
12603;SDS011;6367;52.508;13.284;2023-05-10T04:35:27;6.23;;;4.80;;
12603;SDS011;6367;52.508;13.284;2023-05-10T04:37:53;4.97;;;4.57;;
12603;SDS011;6367;52.508;13.284;2023-05-10T04:40:19;5.03;;;4.63;;
12603;SDS011;6367;52.508;13.284;2023-05-10T04:42:45;4.93;;;4.53;;
12603;SDS011;6367;52.508;13.284;2023-05-10T04:45:11;5.63;;;4.53;;
12603;SDS011;6367;52.508;13.284;2023-05-10T04:47:37;5.63;;;4.63;;
12603;SDS011;6367;52.508;13.284;2023-05-10T04:50:03;9.10;;;5.03;;
12603;SDS011;6367;52.508;13.284;2023-05-10T04:52:29;5.00;;;4.50;;
12603;SDS011;6367;52.508;13.284;2023-05-10T04:54:55;5.53;;;4.97;;
12603;SDS011;6367;52.508;13.284;2023-05-10T04:57:21;5.60;;;5.10;;
12603;SDS011;6367;52.508;13.284;2023-05-10T04:59:46;9.23;;;4.90;;
12603;SDS011;6367;52.508;13.284;2023-05-10T05:02:12;5.27;;;4.77;;
12603;SDS011;6367;52.508;13.284;2023-05-10T05:04:38;5.03;;;4.37;;
12603;SDS011;6367;52.508;13.284;2023-05-10T05:07:03;5.30;;;4.80;;
12603;SDS011;6367;52.508;13.284;2023-05-10T05:09:29;5.00;;;4.53;;
12603;SDS011;6367;52.508;13.284;2023-05-10T05:11:56;6.47;;;4.70;;
12603;SDS011;6367;52.508;13.284;2023-05-10T05:14:22;5.70;;;5.07;;
12603;SDS011;6367;52.508;13.284;2023-05-10T05:16:50;8.90;;;4.30;;
12603;SDS011;6367;52.508;13.284;2023-05-10T05:19:16;5.43;;;4.93;;
12603;SDS011;6367;52.508;13.284;2023-05-10T05:21:42;4.10;;;3.80;;
12603;SDS011;6367;52.508;13.284;2023-05-10T05:24:08;5.93;;;3.93;;
12603;SDS011;6367;52.508;13.284;2023-05-10T05:26:35;4.47;;;4.03;;
12603;SDS011;6367;52.508;13.284;2023-05-10T05:29:01;6.13;;;4.80;;
12603;SDS011;6367;52.508;13.284;2023-05-10T05:31:27;5.40;;;4.00;;
12603;SDS011;6367;52.508;13.284;2023-05-10T05:33:53;4.30;;;4.00;;
12603;SDS011;6367;52.508;13.284;2023-05-10T05:36:19;4.73;;;3.83;;
12603;SDS011;6367;52.508;13.284;2023-05-10T05:38:44;5.00;;;3.60;;
12603;SDS011;6367;52.508;13.284;2023-05-10T05:41:10;4.23;;;3.83;;
12603;SDS011;6367;52.508;13.284;2023-05-10T05:43:36;4.10;;;3.70;;
12603;SDS011;6367;52.508;13.284;2023-05-10T05:46:01;4.70;;;3.83;;
12603;SDS011;6367;52.508;13.284;2023-05-10T05:48:29;6.60;;;4.10;;
12603;SDS011;6367;52.508;13.284;2023-05-10T05:50:55;5.70;;;3.93;;
12603;SDS011;6367;52.508;13.284;2023-05-10T05:53:21;3.37;;;3.07;;
12603;SDS011;6367;52.508;13.284;2023-05-10T05:55:55;4.47;;;4.07;;
12603;SDS011;6367;52.508;13.284;2023-05-10T05:58:22;5.40;;;4.20;;
12603;SDS011;6367;52.508;13.284;2023-05-10T06:00:48;4.00;;;3.70;;
12603;SDS011;6367;52.508;13.284;2023-05-10T06:03:14;3.47;;;3.17;;
12603;SDS011;6367;52.508;13.284;2023-05-10T06:05:40;5.73;;;3.90;;
12603;SDS011;6367;52.508;13.284;2023-05-10T06:08:06;4.27;;;3.87;;
12603;SDS011;6367;52.508;13.284;2023-05-10T06:10:31;9.90;;;5.07;;
12603;SDS011;6367;52.508;13.284;2023-05-10T06:12:57;3.80;;;3.50;;
12603;SDS011;6367;52.508;13.284;2023-05-10T06:15:22;5.37;;;3.60;;
12603;SDS011;6367;52.508;13.284;2023-05-10T06:17:48;4.00;;;3.70;;
12603;SDS011;6367;52.508;13.284;2023-05-10T06:20:14;4.83;;;3.33;;
12603;SDS011;6367;52.508;13.284;2023-05-10T06:22:40;4.03;;;3.60;;
12603;SDS011;6367;52.508;13.284;2023-05-10T06:25:07;3.33;;;3.10;;
12603;SDS011;6367;52.508;13.284;2023-05-10T06:27:33;6.43;;;4.30;;
12603;SDS011;6367;52.508;13.284;2023-05-10T06:29:59;7.90;;;3.27;;
12603;SDS011;6367;52.508;13.284;2023-05-10T06:32:25;4.80;;;3.43;;
12603;SDS011;6367;52.508;13.284;2023-05-10T06:34:50;4.90;;;3.47;;
12603;SDS011;6367;52.508;13.284;2023-05-10T06:37:17;5.50;;;3.10;;
12603;SDS011;6367;52.508;13.284;2023-05-10T06:39:42;4.80;;;3.37;;
12603;SDS011;6367;52.508;13.284;2023-05-10T06:42:08;3.40;;;3.03;;
12603;SDS011;6367;52.508;13.284;2023-05-10T06:44:34;4.10;;;2.93;;
12603;SDS011;6367;52.508;13.284;2023-05-10T06:46:59;5.50;;;3.73;;
12603;SDS011;6367;52.508;13.284;2023-05-10T06:49:25;3.30;;;2.70;;
12603;SDS011;6367;52.508;13.284;2023-05-10T06:51:51;4.17;;;3.20;;
12603;SDS011;6367;52.508;13.284;2023-05-10T06:54:16;5.07;;;3.20;;
12603;SDS011;6367;52.508;13.284;2023-05-10T06:56:42;3.63;;;3.03;;
12603;SDS011;6367;52.508;13.284;2023-05-10T06:59:08;3.30;;;3.00;;
12603;SDS011;6367;52.508;13.284;2023-05-10T07:01:34;4.63;;;3.70;;
12603;SDS011;6367;52.508;13.284;2023-05-10T07:03:59;3.23;;;2.93;;
12603;SDS011;6367;52.508;13.284;2023-05-10T07:06:26;3.80;;;2.63;;
12603;SDS011;6367;52.508;13.284;2023-05-10T07:08:52;4.60;;;2.77;;
12603;SDS011;6367;52.508;13.284;2023-05-10T07:11:18;4.67;;;3.23;;
12603;SDS011;6367;52.508;13.284;2023-05-10T07:13:43;3.60;;;3.30;;
12603;SDS011;6367;52.508;13.284;2023-05-10T07:16:11;5.50;;;3.03;;
12603;SDS011;6367;52.508;13.284;2023-05-10T07:18:37;4.93;;;3.10;;
12603;SDS011;6367;52.508;13.284;2023-05-10T07:21:02;3.33;;;3.13;;
12603;SDS011;6367;52.508;13.284;2023-05-10T07:23:28;6.00;;;3.50;;
12603;SDS011;6367;52.508;13.284;2023-05-10T07:25:54;3.33;;;2.90;;
12603;SDS011;6367;52.508;13.284;2023-05-10T07:28:22;3.13;;;2.93;;
12603;SDS011;6367;52.508;13.284;2023-05-10T07:30:49;3.30;;;3.00;;
12603;SDS011;6367;52.508;13.284;2023-05-10T07:33:15;3.33;;;3.00;;
12603;SDS011;6367;52.508;13.284;2023-05-10T07:35:41;3.27;;;3.00;;
12603;SDS011;6367;52.508;13.284;2023-05-10T07:38:07;4.33;;;2.50;;
12603;SDS011;6367;52.508;13.284;2023-05-10T07:40:32;3.93;;;3.10;;
12603;SDS011;6367;52.508;13.284;2023-05-10T07:42:59;3.50;;;3.17;;
12603;SDS011;6367;52.508;13.284;2023-05-10T07:45:27;4.50;;;3.40;;
12603;SDS011;6367;52.508;13.284;2023-05-10T07:47:53;4.23;;;2.80;;
12603;SDS011;6367;52.508;13.284;2023-05-10T07:50:19;3.17;;;2.90;;
12603;SDS011;6367;52.508;13.284;2023-05-10T07:52:46;3.37;;;3.07;;
12603;SDS011;6367;52.508;13.284;2023-05-10T07:55:12;4.83;;;2.87;;
12603;SDS011;6367;52.508;13.284;2023-05-10T07:57:38;4.97;;;2.83;;
12603;SDS011;6367;52.508;13.284;2023-05-10T08:00:04;3.43;;;2.80;;
12603;SDS011;6367;52.508;13.284;2023-05-10T08:02:30;4.10;;;2.90;;
12603;SDS011;6367;52.508;13.284;2023-05-10T08:04:56;3.43;;;3.10;;
12603;SDS011;6367;52.508;13.284;2023-05-10T08:07:22;3.53;;;2.90;;
12603;SDS011;6367;52.508;13.284;2023-05-10T08:09:49;3.33;;;3.13;;
12603;SDS011;6367;52.508;13.284;2023-05-10T08:12:15;4.37;;;3.97;;
12603;SDS011;6367;52.508;13.284;2023-05-10T08:14:41;3.60;;;3.30;;
12603;SDS011;6367;52.508;13.284;2023-05-10T08:17:07;3.03;;;2.70;;
12603;SDS011;6367;52.508;13.284;2023-05-10T08:19:33;4.43;;;3.20;;
12603;SDS011;6367;52.508;13.284;2023-05-10T08:21:58;3.33;;;2.60;;
12603;SDS011;6367;52.508;13.284;2023-05-10T08:24:24;3.23;;;2.70;;
12603;SDS011;6367;52.508;13.284;2023-05-10T08:26:50;5.73;;;3.10;;
12603;SDS011;6367;52.508;13.284;2023-05-10T08:29:16;3.50;;;2.93;;
12603;SDS011;6367;52.508;13.284;2023-05-10T08:31:41;5.10;;;3.13;;
12603;SDS011;6367;52.508;13.284;2023-05-10T08:34:07;3.27;;;2.97;;
12603;SDS011;6367;52.508;13.284;2023-05-10T08:36:33;4.27;;;2.80;;
12603;SDS011;6367;52.508;13.284;2023-05-10T08:38:58;4.30;;;3.23;;
12603;SDS011;6367;52.508;13.284;2023-05-10T08:41:25;3.60;;;3.10;;
12603;SDS011;6367;52.508;13.284;2023-05-10T08:43:51;2.80;;;2.60;;
12603;SDS011;6367;52.508;13.284;2023-05-10T08:46:18;4.43;;;3.10;;
12603;SDS011;6367;52.508;13.284;2023-05-10T08:48:45;3.87;;;2.80;;
12603;SDS011;6367;52.508;13.284;2023-05-10T08:51:17;6.07;;;2.70;;
12603;SDS011;6367;52.508;13.284;2023-05-10T08:53:45;3.30;;;3.00;;
12603;SDS011;6367;52.508;13.284;2023-05-10T08:56:11;3.33;;;2.97;;
12603;SDS011;6367;52.508;13.284;2023-05-10T08:58:37;3.70;;;3.20;;
12603;SDS011;6367;52.508;13.284;2023-05-10T09:01:03;4.10;;;3.67;;
12603;SDS011;6367;52.508;13.284;2023-05-10T09:03:30;3.03;;;2.43;;
12603;SDS011;6367;52.508;13.284;2023-05-10T09:05:56;3.47;;;3.03;;
12603;SDS011;6367;52.508;13.284;2023-05-10T09:08:25;2.90;;;2.60;;
12603;SDS011;6367;52.508;13.284;2023-05-10T09:10:52;3.90;;;3.30;;
12603;SDS011;6367;52.508;13.284;2023-05-10T09:13:19;4.03;;;2.83;;
12603;SDS011;6367;52.508;13.284;2023-05-10T09:15:45;5.90;;;3.50;;
12603;SDS011;6367;52.508;13.284;2023-05-10T09:18:12;3.00;;;2.80;;
12603;SDS011;6367;52.508;13.284;2023-05-10T09:20:38;3.13;;;2.83;;
12603;SDS011;6367;52.508;13.284;2023-05-10T09:23:03;3.63;;;2.73;;
12603;SDS011;6367;52.508;13.284;2023-05-10T09:25:30;3.20;;;2.67;;
12603;SDS011;6367;52.508;13.284;2023-05-10T09:27:58;4.00;;;3.17;;
12603;SDS011;6367;52.508;13.284;2023-05-10T09:30:24;5.03;;;3.10;;
12603;SDS011;6367;52.508;13.284;2023-05-10T09:32:55;3.47;;;2.97;;
12603;SDS011;6367;52.508;13.284;2023-05-10T09:35:25;4.20;;;2.90;;
12603;SDS011;6367;52.508;13.284;2023-05-10T09:37:53;4.30;;;3.10;;
12603;SDS011;6367;52.508;13.284;2023-05-10T09:40:21;5.80;;;3.30;;
12603;SDS011;6367;52.508;13.284;2023-05-10T09:42:58;3.50;;;3.10;;
12603;SDS011;6367;52.508;13.284;2023-05-10T09:45:34;3.43;;;3.13;;
12603;SDS011;6367;52.508;13.284;2023-05-10T09:48:01;2.77;;;2.57;;
12603;SDS011;6367;52.508;13.284;2023-05-10T09:50:28;4.20;;;2.70;;
12603;SDS011;6367;52.508;13.284;2023-05-10T09:52:58;3.97;;;2.90;;
12603;SDS011;6367;52.508;13.284;2023-05-10T09:58:02;3.03;;;2.73;;
12603;SDS011;6367;52.508;13.284;2023-05-10T10:00:33;3.40;;;3.10;;
12603;SDS011;6367;52.508;13.284;2023-05-10T10:03:00;3.13;;;2.87;;
12603;SDS011;6367;52.508;13.284;2023-05-10T10:05:34;4.00;;;3.53;;
12603;SDS011;6367;52.508;13.284;2023-05-10T10:08:02;4.57;;;2.60;;
12603;SDS011;6367;52.508;13.284;2023-05-10T10:10:29;3.00;;;2.80;;
12603;SDS011;6367;52.508;13.284;2023-05-10T10:12:57;3.10;;;2.80;;
12603;SDS011;6367;52.508;13.284;2023-05-10T10:15:23;2.57;;;2.37;;
12603;SDS011;6367;52.508;13.284;2023-05-10T10:17:50;4.03;;;3.13;;
12603;SDS011;6367;52.508;13.284;2023-05-10T10:20:17;4.43;;;3.07;;
12603;SDS011;6367;52.508;13.284;2023-05-10T10:22:43;3.37;;;2.37;;
12603;SDS011;6367;52.508;13.284;2023-05-10T10:25:10;4.73;;;2.77;;
12603;SDS011;6367;52.508;13.284;2023-05-10T10:27:48;3.27;;;3.07;;
12603;SDS011;6367;52.508;13.284;2023-05-10T10:35:53;3.37;;;3.03;;
12603;SDS011;6367;52.508;13.284;2023-05-10T10:38:20;3.23;;;2.73;;
12603;SDS011;6367;52.508;13.284;2023-05-10T10:40:47;3.43;;;3.13;;
12603;SDS011;6367;52.508;13.284;2023-05-10T10:43:25;5.30;;;2.87;;
12603;SDS011;6367;52.508;13.284;2023-05-10T10:48:38;2.87;;;2.67;;
12603;SDS011;6367;52.508;13.284;2023-05-10T10:51:05;3.60;;;3.30;;
12603;SDS011;6367;52.508;13.284;2023-05-10T10:53:30;3.63;;;2.80;;
12603;SDS011;6367;52.508;13.284;2023-05-10T10:56:07;3.50;;;3.20;;
12603;SDS011;6367;52.508;13.284;2023-05-10T10:58:38;3.57;;;3.23;;
12603;SDS011;6367;52.508;13.284;2023-05-10T11:01:11;3.63;;;3.33;;
12603;SDS011;6367;52.508;13.284;2023-05-10T11:03:41;4.70;;;2.90;;
12603;SDS011;6367;52.508;13.284;2023-05-10T11:06:32;2.80;;;2.60;;
12603;SDS011;6367;52.508;13.284;2023-05-10T11:09:07;3.27;;;2.70;;
12603;SDS011;6367;52.508;13.284;2023-05-10T11:11:35;3.43;;;2.97;;
12603;SDS011;6367;52.508;13.284;2023-05-10T11:14:04;8.63;;;3.97;;
12603;SDS011;6367;52.508;13.284;2023-05-10T11:16:41;2.90;;;2.70;;
12603;SDS011;6367;52.508;13.284;2023-05-10T11:19:12;4.33;;;2.83;;
12603;SDS011;6367;52.508;13.284;2023-05-10T11:21:51;3.03;;;2.83;;
12603;SDS011;6367;52.508;13.284;2023-05-10T11:24:40;3.80;;;2.70;;
12603;SDS011;6367;52.508;13.284;2023-05-10T11:27:23;2.53;;;2.33;;
12603;SDS011;6367;52.508;13.284;2023-05-10T11:29:51;4.10;;;2.80;;
12603;SDS011;6367;52.508;13.284;2023-05-10T11:32:17;3.40;;;3.00;;
12603;SDS011;6367;52.508;13.284;2023-05-10T11:34:46;12.47;;;9.27;;
12603;SDS011;6367;52.508;13.284;2023-05-10T11:37:13;5.03;;;3.57;;
12603;SDS011;6367;52.508;13.284;2023-05-10T11:39:38;4.67;;;3.10;;
12603;SDS011;6367;52.508;13.284;2023-05-10T11:42:12;5.30;;;2.90;;
12603;SDS011;6367;52.508;13.284;2023-05-10T11:44:37;2.70;;;2.50;;
12603;SDS011;6367;52.508;13.284;2023-05-10T11:47:03;3.00;;;2.60;;
12603;SDS011;6367;52.508;13.284;2023-05-10T11:49:30;3.20;;;2.20;;
12603;SDS011;6367;52.508;13.284;2023-05-10T11:52:08;17.70;;;15.23;;
12603;SDS011;6367;52.508;13.284;2023-05-10T11:54:35;3.23;;;3.03;;
12603;SDS011;6367;52.508;13.284;2023-05-10T11:57:02;2.20;;;2.10;;
12603;SDS011;6367;52.508;13.284;2023-05-10T11:59:28;2.90;;;2.53;;
12603;SDS011;6367;52.508;13.284;2023-05-10T12:01:54;2.83;;;2.50;;
12603;SDS011;6367;52.508;13.284;2023-05-10T12:04:20;5.13;;;3.73;;
12603;SDS011;6367;52.508;13.284;2023-05-10T12:06:46;4.00;;;2.57;;
12603;SDS011;6367;52.508;13.284;2023-05-10T12:09:12;4.30;;;2.40;;
12603;SDS011;6367;52.508;13.284;2023-05-10T12:11:38;2.57;;;2.37;;
12603;SDS011;6367;52.508;13.284;2023-05-10T12:14:05;2.80;;;2.60;;
12603;SDS011;6367;52.508;13.284;2023-05-10T12:16:31;5.17;;;3.00;;
12603;SDS011;6367;52.508;13.284;2023-05-10T12:18:58;2.63;;;2.43;;
12603;SDS011;6367;52.508;13.284;2023-05-10T12:21:25;4.83;;;2.90;;
12603;SDS011;6367;52.508;13.284;2023-05-10T12:23:53;2.90;;;2.50;;
12603;SDS011;6367;52.508;13.284;2023-05-10T12:26:23;3.10;;;2.80;;
12603;SDS011;6367;52.508;13.284;2023-05-10T12:28:51;3.80;;;2.83;;
12603;SDS011;6367;52.508;13.284;2023-05-10T12:31:20;4.60;;;3.40;;
12603;SDS011;6367;52.508;13.284;2023-05-10T12:33:46;3.23;;;2.63;;
12603;SDS011;6367;52.508;13.284;2023-05-10T12:36:13;3.00;;;2.70;;
12603;SDS011;6367;52.508;13.284;2023-05-10T12:38:41;3.47;;;2.70;;
12603;SDS011;6367;52.508;13.284;2023-05-10T12:41:12;3.10;;;2.90;;
12603;SDS011;6367;52.508;13.284;2023-05-10T12:43:39;2.07;;;1.93;;
12603;SDS011;6367;52.508;13.284;2023-05-10T12:46:06;3.33;;;2.80;;
12603;SDS011;6367;52.508;13.284;2023-05-10T12:48:32;3.53;;;2.53;;
12603;SDS011;6367;52.508;13.284;2023-05-10T12:50:59;3.00;;;2.67;;
12603;SDS011;6367;52.508;13.284;2023-05-10T12:53:25;3.07;;;2.77;;
12603;SDS011;6367;52.508;13.284;2023-05-10T12:55:51;7.37;;;2.90;;
12603;SDS011;6367;52.508;13.284;2023-05-10T12:58:16;3.07;;;2.87;;
12603;SDS011;6367;52.508;13.284;2023-05-10T13:00:42;5.70;;;2.97;;
12603;SDS011;6367;52.508;13.284;2023-05-10T13:03:08;4.17;;;3.00;;
12603;SDS011;6367;52.508;13.284;2023-05-10T13:05:36;3.47;;;3.17;;
12603;SDS011;6367;52.508;13.284;2023-05-10T13:08:02;3.57;;;2.60;;
12603;SDS011;6367;52.508;13.284;2023-05-10T13:10:30;3.20;;;2.63;;
12603;SDS011;6367;52.508;13.284;2023-05-10T13:12:57;3.27;;;2.97;;
12603;SDS011;6367;52.508;13.284;2023-05-10T13:15:23;3.57;;;2.80;;
12603;SDS011;6367;52.508;13.284;2023-05-10T13:17:50;2.63;;;2.40;;
12603;SDS011;6367;52.508;13.284;2023-05-10T13:20:15;3.03;;;2.83;;
12603;SDS011;6367;52.508;13.284;2023-05-10T13:22:42;3.73;;;2.80;;
12603;SDS011;6367;52.508;13.284;2023-05-10T13:25:09;4.30;;;3.07;;
12603;SDS011;6367;52.508;13.284;2023-05-10T13:27:34;3.03;;;2.50;;
12603;SDS011;6367;52.508;13.284;2023-05-10T13:30:00;2.70;;;2.50;;
12603;SDS011;6367;52.508;13.284;2023-05-10T13:32:28;2.70;;;2.50;;
12603;SDS011;6367;52.508;13.284;2023-05-10T13:34:54;2.47;;;2.37;;
12603;SDS011;6367;52.508;13.284;2023-05-10T13:37:20;2.83;;;2.50;;
12603;SDS011;6367;52.508;13.284;2023-05-10T13:39:46;2.53;;;2.37;;
12603;SDS011;6367;52.508;13.284;2023-05-10T13:42:12;3.60;;;2.93;;
12603;SDS011;6367;52.508;13.284;2023-05-10T13:44:38;3.40;;;2.57;;
12603;SDS011;6367;52.508;13.284;2023-05-10T13:47:04;3.00;;;2.37;;
12603;SDS011;6367;52.508;13.284;2023-05-10T13:49:30;3.37;;;2.70;;
12603;SDS011;6367;52.508;13.284;2023-05-10T13:51:56;3.00;;;2.50;;
12603;SDS011;6367;52.508;13.284;2023-05-10T13:54:21;4.13;;;2.90;;
12603;SDS011;6367;52.508;13.284;2023-05-10T13:56:48;4.33;;;2.73;;
12603;SDS011;6367;52.508;13.284;2023-05-10T13:59:14;3.10;;;2.70;;
12603;SDS011;6367;52.508;13.284;2023-05-10T14:01:40;3.40;;;3.00;;
12603;SDS011;6367;52.508;13.284;2023-05-10T14:04:06;4.00;;;2.70;;
12603;SDS011;6367;52.508;13.284;2023-05-10T14:06:35;2.80;;;2.43;;
12603;SDS011;6367;52.508;13.284;2023-05-10T14:09:01;2.70;;;2.50;;
12603;SDS011;6367;52.508;13.284;2023-05-10T14:11:27;3.07;;;2.67;;
12603;SDS011;6367;52.508;13.284;2023-05-10T14:13:53;3.00;;;2.53;;
12603;SDS011;6367;52.508;13.284;2023-05-10T14:16:19;4.17;;;2.87;;
12603;SDS011;6367;52.508;13.284;2023-05-10T14:18:45;5.10;;;3.30;;
12603;SDS011;6367;52.508;13.284;2023-05-10T14:21:11;2.90;;;2.70;;
12603;SDS011;6367;52.508;13.284;2023-05-10T14:23:37;4.33;;;2.73;;
12603;SDS011;6367;52.508;13.284;2023-05-10T14:26:03;3.43;;;2.70;;
12603;SDS011;6367;52.508;13.284;2023-05-10T14:28:28;4.70;;;2.53;;
12603;SDS011;6367;52.508;13.284;2023-05-10T14:30:54;2.40;;;2.30;;
12603;SDS011;6367;52.508;13.284;2023-05-10T14:33:20;2.53;;;2.33;;
12603;SDS011;6367;52.508;13.284;2023-05-10T14:35:46;3.27;;;2.40;;
12603;SDS011;6367;52.508;13.284;2023-05-10T14:38:12;6.77;;;4.33;;
12603;SDS011;6367;52.508;13.284;2023-05-10T14:40:38;2.77;;;2.57;;
12603;SDS011;6367;52.508;13.284;2023-05-10T14:43:04;2.40;;;2.20;;
12603;SDS011;6367;52.508;13.284;2023-05-10T14:45:30;3.97;;;2.90;;
12603;SDS011;6367;52.508;13.284;2023-05-10T14:47:56;3.80;;;3.27;;
12603;SDS011;6367;52.508;13.284;2023-05-10T14:50:22;2.77;;;2.47;;
12603;SDS011;6367;52.508;13.284;2023-05-10T14:52:48;2.93;;;2.73;;
12603;SDS011;6367;52.508;13.284;2023-05-10T14:55:14;6.70;;;4.90;;
12603;SDS011;6367;52.508;13.284;2023-05-10T14:57:40;4.20;;;2.70;;
12603;SDS011;6367;52.508;13.284;2023-05-10T15:00:06;3.20;;;2.57;;
12603;SDS011;6367;52.508;13.284;2023-05-10T15:02:32;2.87;;;2.40;;
12603;SDS011;6367;52.508;13.284;2023-05-10T15:04:58;3.77;;;2.87;;
12603;SDS011;6367;52.508;13.284;2023-05-10T15:07:24;2.90;;;2.63;;
12603;SDS011;6367;52.508;13.284;2023-05-10T15:09:50;2.87;;;2.67;;
12603;SDS011;6367;52.508;13.284;2023-05-10T15:12:19;3.57;;;2.77;;
12603;SDS011;6367;52.508;13.284;2023-05-10T15:14:45;2.57;;;2.40;;
12603;SDS011;6367;52.508;13.284;2023-05-10T15:17:11;3.10;;;2.70;;